Time;durP1;ratioP1;P1;durP2;ratioP2;P2;SDS_P1;SDS_P2;PMS_P1;PMS_P2;Temp;Humidity;BMP_temperature;BMP_pressure;BME280_temperature;BME280_humidity;BME280_pressure;Samples;Min_cycle;Max_cycle;Signal;HPM_P1;HPM_P2
2022/06/03 00:02:32;;;;;;;9.52;5.22;;;;;;;12.89;62.64;101759.06;5113516;28;20414;-85
2022/06/03 00:05:29;;;;;;;5.75;5.15;;;;;;;12.84;62.75;101762.41;5112394;28;20028;-84
2022/06/03 00:08:10;;;;;;;9.60;5.03;;;;;;;12.77;64.46;101758.84;5113410;28;20027;-84
2022/06/03 00:10:54;;;;;;;9.10;5.07;;;;;;;12.72;63.28;101766.81;5114263;28;20061;-84
2022/06/03 00:13:32;;;;;;;5.28;4.78;;;;;;;12.68;63.89;101760.97;5116596;28;20379;-84
2022/06/03 00:16:20;;;;;;;5.30;4.78;;;;;;;12.62;63.75;101757.19;5116271;28;20036;-84
2022/06/03 00:19:11;;;;;;;8.95;5.30;;;;;;;12.60;63.92;101761.13;5116263;28;20034;-84
2022/06/03 00:21:55;;;;;;;7.93;5.03;;;;;;;12.56;63.30;101760.72;5116128;28;20034;-84
2022/06/03 00:24:51;;;;;;;5.47;4.97;;;;;;;12.55;65.34;101769.06;5116218;28;20084;-84
2022/06/03 00:27:25;;;;;;;6.80;5.00;;;;;;;12.52;64.75;101762.19;5116248;28;20419;-85
2022/06/03 00:30:01;;;;;;;7.53;5.55;;;;;;;12.51;65.47;101757.78;5116599;28;20100;-85
2022/06/03 00:33:11;;;;;;;8.40;5.65;;;;;;;12.47;64.76;101764.66;5117168;28;20467;-85
2022/06/03 00:36:16;;;;;;;6.83;5.40;;;;;;;12.47;64.19;101761.94;5085399;28;20044;-85
2022/06/03 00:38:56;;;;;;;6.97;5.60;;;;;;;12.45;66.05;101758.59;5115878;28;20027;-85
2022/06/03 00:41:47;;;;;;;8.50;5.68;;;;;;;12.44;64.49;101756.91;5116047;28;20112;-85
2022/06/03 00:44:15;;;;;;;6.75;5.22;;;;;;;12.43;66.12;101750.63;5085020;28;20039;-85
2022/06/03 00:47:19;;;;;;;7.53;5.32;;;;;;;12.38;65.22;101757.75;5115901;28;20027;-85
2022/06/03 00:50:09;;;;;;;9.30;5.37;;;;;;;12.33;65.82;101758.34;5116723;28;20468;-85
2022/06/03 00:53:02;;;;;;;5.90;5.25;;;;;;;12.29;66.39;101755.19;5115802;28;20083;-85
2022/06/03 00:55:48;;;;;;;6.93;5.60;;;;;;;12.28;67.05;101758.97;5116876;28;20028;-85
2022/06/03 00:58:23;;;;;;;7.88;5.47;;;;;;;12.28;67.44;101752.69;5115761;28;20031;-85
2022/06/03 01:01:15;;;;;;;7.25;5.57;;;;;;;12.26;67.26;101754.78;5115951;28;20067;-85
2022/06/03 01:03:59;;;;;;;10.40;5.70;;;;;;;12.24;67.39;101754.16;5115316;28;20032;-84
2022/06/03 01:06:39;;;;;;;8.20;5.55;;;;;;;12.25;67.36;101750.38;5116849;28;20035;-85
2022/06/03 01:09:17;;;;;;;6.20;5.43;;;;;;;12.27;67.35;101749.13;5115801;28;20464;-84
2022/06/03 01:11:43;;;;;;;8.20;5.47;;;;;;;12.29;67.07;101747.03;5116552;28;20019;-84
2022/06/03 01:14:08;;;;;;;6.57;5.17;;;;;;;12.34;67.49;101742.84;5115620;28;20038;-85
2022/06/03 01:17:08;;;;;;;10.23;5.50;;;;;;;12.37;66.20;101739.72;5116324;28;20092;-85
2022/06/03 01:19:39;;;;;;;6.03;5.10;;;;;;;12.37;67.22;101745.16;5114954;28;20024;-84
2022/06/03 01:22:35;;;;;;;6.82;5.30;;;;;;;12.40;66.98;101736.59;5114033;28;20130;-85
2022/06/03 01:25:54;;;;;;;8.10;5.43;;;;;;;12.44;65.57;101737.84;5116511;28;20440;-84
2022/06/03 01:28:37;;;;;;;8.73;5.72;;;;;;;12.46;66.41;101725.72;5033483;28;20066;-85
2022/06/03 01:31:22;;;;;;;6.77;5.20;;;;;;;12.46;67.39;101723.00;5114881;28;20460;-84
2022/06/03 01:34:14;;;;;;;7.43;5.50;;;;;;;12.49;67.54;101727.22;5115244;28;20476;-85
2022/06/03 01:36:54;;;;;;;6.53;5.68;;;;;;;12.50;66.61;101717.16;5116617;28;20027;-84
2022/06/03 01:39:30;;;;;;;5.72;5.13;;;;;;;12.51;66.55;101732.44;5114706;28;20031;-85
2022/06/03 01:42:17;;;;;;;6.72;6.03;;;;;;;12.49;67.23;101710.88;5115278;28;20059;-84
2022/06/03 01:44:54;;;;;;;6.00;5.40;;;;;;;12.46;66.79;101711.28;5114045;28;20054;-85
2022/06/03 01:47:25;;;;;;;8.65;5.70;;;;;;;12.43;67.53;101715.25;5115460;28;20020;-84
2022/06/03 01:50:23;;;;;;;7.28;5.22;;;;;;;12.41;67.37;101714.59;5114146;28;20044;-85
2022/06/03 01:53:24;;;;;;;7.05;5.68;;;;;;;12.37;66.77;101715.22;5114315;28;20035;-84
2022/06/03 01:56:15;;;;;;;7.82;5.53;;;;;;;12.32;66.98;101710.41;5114622;28;20031;-84
2022/06/03 01:59:12;;;;;;;7.63;5.63;;;;;;;12.27;67.83;101705.59;5115545;28;20027;-85
2022/06/03 02:02:05;;;;;;;7.32;5.40;;;;;;;12.22;67.76;101715.41;5075990;28;20055;-85
2022/06/03 02:04:38;;;;;;;5.72;5.13;;;;;;;12.15;67.91;101714.53;5114641;28;20112;-85
2022/06/03 02:07:39;;;;;;;9.07;5.30;;;;;;;12.10;67.45;101701.56;5115004;28;20027;-84
2022/06/03 02:10:36;;;;;;;7.85;5.53;;;;;;;12.06;66.83;101703.00;5114430;28;20072;-84
2022/06/03 02:13:22;;;;;;;7.03;5.43;;;;;;;12.01;68.91;101694.63;5115385;28;20035;-84
2022/06/03 02:16:18;;;;;;;6.60;5.38;;;;;;;11.94;67.98;101686.44;5115066;28;20024;-85
2022/06/03 02:19:11;;;;;;;7.15;5.72;;;;;;;11.93;69.63;101698.38;5069992;28;20475;-84
2022/06/03 02:21:44;;;;;;;6.50;5.82;;;;;;;11.93;69.28;101696.50;5114341;28;20039;-84
2022/06/03 02:24:26;;;;;;;5.97;5.38;;;;;;;11.92;68.92;101697.50;5113734;28;20126;-84
2022/06/03 02:26:54;;;;;;;7.93;6.03;;;;;;;11.89;69.82;101706.06;5114333;28;20363;-84
2022/06/03 02:32:44;;;;;;;7.10;5.85;;;;;;;11.84;70.10;101700.41;5115577;28;20039;-85
2022/06/03 02:35:37;;;;;;;8.95;6.00;;;;;;;11.82;70.36;101698.94;5113353;28;20512;-85
2022/06/03 02:38:26;;;;;;;8.18;6.20;;;;;;;11.78;69.34;101703.94;5114045;28;20031;-85
2022/06/03 02:41:47;;;;;;;6.60;5.67;;;;;;;11.72;69.52;101694.72;5115108;28;20073;-85
2022/06/03 02:44:50;;;;;;;6.53;5.50;;;;;;;11.70;69.71;101690.50;5090203;28;20043;-84
2022/06/03 02:47:42;;;;;;;8.20;5.50;;;;;;;11.65;69.13;101674.81;5114925;28;20044;-84
2022/06/03 02:50:29;;;;;;;6.43;5.78;;;;;;;11.61;69.60;101675.44;5114257;28;20042;-84
2022/06/03 02:53:13;;;;;;;8.18;5.70;;;;;;;11.58;69.88;101680.19;5113143;28;20035;-84
2022/06/03 02:55:54;;;;;;;7.77;6.10;;;;;;;11.55;71.67;101683.31;5114250;28;20027;-84
2022/06/03 02:58:38;;;;;;;6.80;5.93;;;;;;;11.52;71.25;101681.00;5113599;28;20031;-84
2022/06/03 03:01:27;;;;;;;7.07;6.38;;;;;;;11.53;71.74;101690.00;5113464;28;20032;-85
2022/06/03 03:04:20;;;;;;;12.82;6.50;;;;;;;11.52;71.07;101688.34;5114432;28;20015;-85
2022/06/03 03:06:55;;;;;;;7.00;6.30;;;;;;;11.50;71.42;101684.97;5112786;28;20066;-84
2022/06/03 03:09:56;;;;;;;9.17;5.83;;;;;;;11.49;70.78;101683.31;5114380;28;20031;-85
2022/06/03 03:12:52;;;;;;;7.63;6.38;;;;;;;11.45;71.94;101684.75;5113663;28;20032;-85
2022/06/03 03:15:27;;;;;;;9.00;6.18;;;;;;;11.50;71.54;101682.25;5114514;28;20093;-85
2022/06/03 03:18:29;;;;;;;7.97;6.40;;;;;;;11.49;71.23;101672.44;5114594;28;20055;-85
2022/06/03 03:21:18;;;;;;;7.50;6.05;;;;;;;11.43;71.74;101668.66;5113880;28;20368;-85
2022/06/03 03:23:44;;;;;;;11.80;7.10;;;;;;;11.38;73.08;101674.69;5113418;28;20035;-85
2022/06/03 03:26:24;;;;;;;8.32;6.70;;;;;;;11.36;72.68;101678.63;5112886;28;20361;-85
2022/06/03 03:29:22;;;;;;;8.43;7.07;;;;;;;11.32;71.62;101669.19;5112848;28;20028;-85
2022/06/03 03:32:02;;;;;;;11.05;7.15;;;;;;;11.28;74.16;101659.75;5113295;28;20047;-85
2022/06/03 03:34:42;;;;;;;7.75;6.88;;;;;;;11.23;73.10;101660.38;5112791;28;20127;-85
2022/06/03 03:37:07;;;;;;;7.75;6.88;;;;;;;11.23;73.79;101665.81;5113919;28;20047;-85
2022/06/03 03:39:48;;;;;;;7.07;6.37;;;;;;;11.23;73.51;101654.94;5112776;28;20365;-85
2022/06/03 03:42:28;;;;;;;9.05;6.95;;;;;;;11.22;73.29;101656.81;5112963;28;20031;-85
2022/06/03 03:45:15;;;;;;;7.30;6.57;;;;;;;11.21;73.04;101659.75;5112637;28;20129;-84
2022/06/03 03:48:12;;;;;;;9.93;7.35;;;;;;;11.21;73.15;101665.19;5117971;28;20070;-85
2022/06/03 03:51:14;;;;;;;9.38;6.88;;;;;;;11.22;72.75;101667.69;5116754;28;20038;-85
2022/06/03 03:53:49;;;;;;;13.90;7.15;;;;;;;11.22;74.22;101662.25;5116681;28;20065;-85
2022/06/03 03:56:39;;;;;;;9.90;6.85;;;;;;;11.22;73.11;101656.81;5117306;28;20092;-85
2022/06/03 03:59:48;;;;;;;11.00;6.93;;;;;;;11.26;72.82;101656.41;5116944;28;20035;-85
2022/06/03 04:02:44;;;;;;;9.02;6.88;;;;;;;11.23;73.07;101655.78;5116632;28;20024;-85
2022/06/03 04:05:47;;;;;;;9.48;6.93;;;;;;;11.23;73.18;101654.94;5116670;28;20020;-85
2022/06/03 04:08:50;;;;;;;10.63;6.72;;;;;;;11.24;73.16;101648.47;5116528;28;20128;-85
2022/06/03 04:11:53;;;;;;;9.07;7.03;;;;;;;11.28;73.20;101649.75;5116640;28;20055;-85
2022/06/03 04:14:43;;;;;;;8.63;7.10;;;;;;;11.31;74.30;101643.91;5118162;28;20038;-84
2022/06/03 04:17:50;;;;;;;9.15;6.85;;;;;;;11.31;73.59;101651.22;5116566;28;20043;-85
2022/06/03 04:20:27;;;;;;;10.63;7.50;;;;;;;11.33;73.53;101649.16;5115187;28;20043;-85
2022/06/03 04:23:11;;;;;;;9.60;7.13;;;;;;;11.38;73.21;101649.38;5116110;28;20459;-84
2022/06/03 04:26:28;;;;;;;8.70;7.32;;;;;;;11.41;73.08;101644.38;5116108;28;20063;-85
2022/06/03 04:29:00;;;;;;;9.40;7.00;;;;;;;11.44;73.50;101642.28;5071552;28;20039;-85
2022/06/03 04:31:56;;;;;;;11.68;7.70;;;;;;;11.47;73.58;101631.03;5116076;28;20123;-85
2022/06/03 04:34:52;;;;;;;9.38;7.30;;;;;;;11.52;72.41;101634.00;5116011;28;20030;-85
2022/06/03 04:37:29;;;;;;;8.50;6.70;;;;;;;11.57;72.97;101635.06;5117713;28;20031;-85
2022/06/03 04:40:13;;;;;;;8.32;7.10;;;;;;;11.58;73.08;101646.75;5115700;28;20032;-85
2022/06/03 04:42:51;;;;;;;10.57;7.20;;;;;;;11.62;73.55;101644.47;5116036;28;20046;-84
2022/06/03 04:46:24;;;;;;;13.68;7.30;;;;;;;11.66;72.28;101652.03;5115225;28;20134;-85
2022/06/03 04:49:01;;;;;;;9.43;7.30;;;;;;;11.75;73.22;101658.09;5023544;28;20529;-85
2022/06/03 04:51:45;;;;;;;10.15;7.53;;;;;;;11.77;73.91;101662.31;5115707;28;20081;-85
2022/06/03 04:54:26;;;;;;;9.43;7.57;;;;;;;11.82;72.76;101663.59;5116116;28;20384;-84
2022/06/03 04:57:12;;;;;;;10.93;7.47;;;;;;;11.88;73.26;101676.34;5116283;28;20034;-84
2022/06/03 05:00:06;;;;;;;8.38;7.10;;;;;;;11.94;72.32;101667.41;5116990;28;20047;-84
2022/06/03 05:03:05;;;;;;;8.75;6.97;;;;;;;12.00;72.12;101654.88;5116671;28;20034;-84
2022/06/03 05:05:42;;;;;;;10.38;6.90;;;;;;;12.03;72.62;101657.19;5116516;28;20117;-87
2022/06/03 05:08:27;;;;;;;10.27;7.30;;;;;;;12.09;71.90;101659.94;5115738;28;20127;-86
2022/06/03 05:11:46;;;;;;;10.00;7.20;;;;;;;12.15;71.64;101658.28;5116090;28;20067;-86
2022/06/03 05:14:33;;;;;;;8.25;6.65;;;;;;;12.23;71.52;101654.53;5115078;28;20406;-86
2022/06/03 05:16:59;;;;;;;8.38;6.72;;;;;;;12.26;72.05;101660.38;5115028;28;20379;-87
2022/06/03 05:19:30;;;;;;;7.97;6.97;;;;;;;12.33;72.08;101648.66;5116445;28;20031;-85
2022/06/03 05:22:33;;;;;;;7.63;6.82;;;;;;;12.38;71.53;101652.44;5116193;28;20028;-86
2022/06/03 05:25:25;;;;;;;9.50;7.32;;;;;;;12.44;71.55;101650.78;5114706;28;20357;-87
2022/06/03 05:28:04;;;;;;;10.68;6.80;;;;;;;12.50;72.08;101644.47;5116449;28;20031;-87
2022/06/03 05:30:52;;;;;;;10.63;6.97;;;;;;;12.57;71.54;101639.88;5115021;28;20028;-86
2022/06/03 05:33:17;;;;;;;9.20;7.30;;;;;;;12.63;71.10;101646.38;5115264;28;20038;-86
2022/06/03 05:36:13;;;;;;;12.70;7.03;;;;;;;12.71;71.02;101639.88;5115059;28;20035;-86
2022/06/03 05:39:13;;;;;;;8.77;6.90;;;;;;;12.77;70.28;101639.03;5115812;28;20024;-86
2022/06/03 05:42:27;;;;;;;10.90;7.32;;;;;;;12.85;70.46;101649.72;5114481;28;20027;-85
2022/06/03 05:45:03;;;;;;;8.95;7.00;;;;;;;12.92;69.92;101645.09;5115578;28;20127;-86
2022/06/03 05:47:53;;;;;;;7.87;6.77;;;;;;;12.99;70.02;101645.09;5114665;28;20118;-87
2022/06/03 05:50:24;;;;;;;8.27;7.22;;;;;;;13.06;69.87;101634.19;5114821;28;20040;-85
2022/06/03 05:53:11;;;;;;;9.20;7.00;;;;;;;13.12;70.12;101634.19;5114373;28;20085;-86
2022/06/03 05:55:53;;;;;;;10.50;7.00;;;;;;;13.19;69.21;101633.31;5114826;28;20032;-86
2022/06/03 05:58:33;;;;;;;11.80;6.70;;;;;;;13.25;69.44;101637.91;5113922;28;20032;-85
2022/06/03 06:01:27;;;;;;;10.70;6.83;;;;;;;13.35;68.88;101648.41;5116336;28;20027;-85
2022/06/03 06:04:09;;;;;;;12.73;6.93;;;;;;;13.42;68.87;101641.88;5115514;28;20031;-86
2022/06/03 06:06:36;;;;;;;10.23;6.90;;;;;;;13.52;68.64;101633.22;5114355;28;20036;-85
2022/06/03 06:09:50;;;;;;;11.55;7.30;;;;;;;13.60;68.11;101635.72;5114976;28;20459;-86
2022/06/03 06:12:19;;;;;;;8.43;6.75;;;;;;;13.69;68.67;101642.59;5104900;28;20039;-86
2022/06/03 06:15:03;;;;;;;10.40;7.00;;;;;;;13.74;67.98;101633.75;5114030;28;20036;-85
2022/06/03 06:17:42;;;;;;;6.57;5.95;;;;;;;13.79;67.25;101635.84;5114084;28;20151;-85
2022/06/03 06:20:19;;;;;;;10.23;6.82;;;;;;;13.87;67.71;101646.50;5113758;28;20475;-85
2022/06/03 06:22:56;;;;;;;7.35;6.07;;;;;;;13.93;66.83;101645.63;5113339;28;20036;-85
2022/06/03 06:25:37;;;;;;;14.23;6.45;;;;;;;14.00;67.11;101654.59;5114063;28;20035;-85
2022/06/03 06:28:23;;;;;;;7.83;6.00;;;;;;;14.08;67.11;101648.06;5114092;28;20080;-91
2022/06/03 06:31:13;;;;;;;9.30;6.30;;;;;;;14.15;66.68;101640.66;5114712;28;20040;-86
2022/06/03 06:34:06;;;;;;;7.90;5.55;;;;;;;14.25;65.63;101633.91;5113180;28;20051;-86
2022/06/03 06:36:48;;;;;;;7.90;5.70;;;;;;;14.32;65.47;101640.97;5112920;28;20110;-86
2022/06/03 06:39:25;;;;;;;6.82;5.82;;;;;;;14.37;65.14;101640.31;5113873;28;20042;-85
2022/06/03 06:42:11;;;;;;;9.53;4.97;;;;;;;14.48;63.96;101645.06;5113275;28;20035;-86
2022/06/03 06:44:39;;;;;;;10.43;5.00;;;;;;;14.57;63.29;101629.22;5113166;28;20112;-86
2022/06/03 06:47:19;;;;;;;7.68;5.40;;;;;;;14.66;63.35;101640.72;5113087;28;20031;-87
2022/06/03 06:50:03;;;;;;;6.82;4.93;;;;;;;14.75;63.31;101636.69;5112970;28;20062;-86
2022/06/03 06:52:57;;;;;;;7.18;5.55;;;;;;;14.86;62.65;101638.66;5114431;28;20038;-87
2022/06/03 06:55:59;;;;;;;6.03;4.90;;;;;;;14.98;62.78;101635.19;5109350;28;20044;-87
2022/06/03 06:58:45;;;;;;;7.30;4.70;;;;;;;15.08;62.45;101639.06;5114513;28;20131;-86
2022/06/03 07:01:20;;;;;;;6.85;5.18;;;;;;;15.21;61.67;101635.38;5113156;28;20028;-86
2022/06/03 07:04:16;;;;;;;;;;;;;;;;;;;;;
2022/06/03 07:06:54;;;;;;;7.60;5.05;;;;;;;15.40;61.44;101635.38;5114088;28;20031;-87
2022/06/03 07:09:27;;;;;;;7.77;5.00;;;;;;;15.51;61.25;101637.31;5113446;28;20112;-87
2022/06/03 07:12:06;;;;;;;8.00;4.80;;;;;;;15.55;60.77;101633.06;5113812;28;20119;-87
2022/06/03 07:14:41;;;;;;;6.20;5.00;;;;;;;15.63;60.45;101637.38;5112850;28;20027;-87
2022/06/03 07:20:27;;;;;;;8.70;5.55;;;;;;;15.82;60.81;101626.47;5113892;28;20042;-87
2022/06/03 07:23:04;;;;;;;9.83;6.27;;;;;;;15.89;60.42;101621.72;5112959;28;20524;-87
2022/06/03 07:26:15;;;;;;;6.72;5.70;;;;;;;15.99;60.47;101612.94;5114207;28;20024;-87
2022/06/03 07:28:50;;;;;;;9.27;6.30;;;;;;;16.02;60.07;101616.06;5114058;28;20028;-87
2022/06/03 07:31:24;;;;;;;7.80;5.97;;;;;;;16.08;60.01;101622.50;5113045;28;20105;-86
2022/06/03 07:34:02;;;;;;;7.03;5.55;;;;;;;16.11;59.85;101622.88;5112666;28;20024;-87
2022/06/03 07:36:28;;;;;;;8.43;5.70;;;;;;;16.17;59.95;101623.03;5112320;28;20440;-86
2022/06/03 07:38:59;;;;;;;8.95;6.20;;;;;;;16.19;60.01;101618.13;5112997;28;20031;-87
2022/06/03 07:41:43;;;;;;;9.57;6.23;;;;;;;16.24;59.97;101621.84;5112223;28;20363;-86
2022/06/03 07:44:16;;;;;;;9.20;6.50;;;;;;;16.33;59.82;101621.47;5113505;28;20043;-87
2022/06/03 07:46:52;;;;;;;8.45;6.07;;;;;;;16.41;59.37;101624.72;5112734;28;20024;-86
2022/06/03 07:49:21;;;;;;;7.53;6.22;;;;;;;16.49;58.87;101624.38;5112901;28;20370;-87
2022/06/03 07:51:52;;;;;;;9.27;6.70;;;;;;;16.59;58.47;101618.31;5112317;28;20467;-87
2022/06/03 07:54:34;;;;;;;10.10;6.87;;;;;;;16.66;58.66;101618.19;5112436;28;20080;-86
2022/06/03 07:57:08;;;;;;;8.50;6.15;;;;;;;16.73;58.66;101626.31;5112843;28;20032;-87
2022/06/03 07:59:37;;;;;;;9.80;7.28;;;;;;;16.76;57.88;101634.06;5112575;28;20138;-86
2022/06/03 08:02:13;;;;;;;12.73;7.10;;;;;;;16.81;58.01;101625.94;5111940;28;20176;-87
2022/06/03 08:04:41;;;;;;;9.63;7.38;;;;;;;16.84;57.29;101615.34;5111881;28;20039;-86
2022/06/03 08:13:05;;;;;;;9.20;7.93;;;;;;;17.23;58.15;101603.03;5113920;28;20179;-87
2022/06/03 08:15:35;;;;;;;8.52;7.03;;;;;;;17.32;56.83;101599.69;5112147;28;20032;-87
2022/06/03 08:18:05;;;;;;;11.48;8.60;;;;;;;17.43;56.89;101581.53;5112218;28;20142;-86
2022/06/03 08:20:40;;;;;;;9.47;7.93;;;;;;;17.54;57.44;101579.84;5111919;28;20092;-87
2022/06/03 08:23:19;;;;;;;16.17;7.93;;;;;;;17.68;57.25;101575.69;5112119;28;20028;-87
2022/06/03 08:25:49;;;;;;;9.68;8.35;;;;;;;17.84;57.18;101576.81;5112527;28;20027;-87
2022/06/03 08:28:23;;;;;;;15.27;7.75;;;;;;;17.99;55.76;101579.03;5112102;28;20023;-87
2022/06/03 08:30:54;;;;;;;11.38;7.65;;;;;;;18.10;54.89;101580.06;5112179;28;20081;-87
2022/06/03 08:33:32;;;;;;;10.97;8.23;;;;;;;18.22;55.33;101571.75;5115573;28;20028;-87
2022/06/03 08:35:59;;;;;;;10.13;7.90;;;;;;;18.37;54.83;101580.25;5115857;28;20027;-84
2022/06/03 08:38:34;;;;;;;10.75;7.63;;;;;;;18.54;54.98;101579.41;5115595;28;20055;-87
2022/06/03 08:41:36;;;;;;;9.23;8.00;;;;;;;18.72;54.27;101592.88;5116002;28;20363;-84
2022/06/03 08:44:25;;;;;;;11.10;7.88;;;;;;;18.89;53.57;101583.78;5115138;28;20051;-84
2022/06/03 08:46:53;;;;;;;9.10;7.80;;;;;;;19.02;52.74;101577.94;5116164;28;20114;-83
2022/06/03 08:49:21;;;;;;;9.00;7.85;;;;;;;19.08;52.94;101576.91;5115444;28;20051;-84
2022/06/03 08:51:56;;;;;;;10.02;8.30;;;;;;;19.21;51.95;101583.94;5115422;28;20050;-84
2022/06/03 08:54:40;;;;;;;10.55;7.60;;;;;;;19.33;52.45;101583.00;5115708;28;20024;-85
2022/06/03 08:57:32;;;;;;;8.98;8.10;;;;;;;19.46;52.20;101586.19;5115749;28;20352;-84
2022/06/03 09:00:20;;;;;;;10.17;8.23;;;;;;;19.64;51.80;101582.25;5105584;28;20550;-84
2022/06/03 09:03:01;;;;;;;12.02;7.72;;;;;;;19.84;51.12;101588.25;5115211;28;20360;-84
2022/06/03 09:05:43;;;;;;;8.77;6.97;;;;;;;19.96;49.89;101587.03;5116030;28;20035;-84
2022/06/03 09:08:39;;;;;;;9.40;7.95;;;;;;;20.14;50.58;101583.03;5115393;28;20034;-84
2022/06/03 09:11:13;;;;;;;11.75;8.35;;;;;;;20.29;49.89;101582.34;5116197;28;20093;-84
2022/06/03 09:13:54;;;;;;;10.50;7.37;;;;;;;20.43;49.40;101574.47;5114877;28;20042;-84
2022/06/03 09:16:21;;;;;;;8.80;6.88;;;;;;;20.59;48.85;101577.34;5116839;28;20029;-83
2022/06/03 09:18:54;;;;;;;8.90;6.97;;;;;;;20.65;47.21;101582.63;5116096;28;20053;-84
2022/06/03 09:21:26;;;;;;;9.90;7.43;;;;;;;20.66;47.44;101575.22;5115202;28;20035;-84
2022/06/03 09:23:58;;;;;;;9.02;7.50;;;;;;;20.71;47.22;101577.97;5114795;28;20015;-84
2022/06/03 09:26:38;;;;;;;8.10;7.30;;;;;;;20.77;47.40;101581.59;5098108;28;20055;-84
2022/06/03 09:29:06;;;;;;;10.18;7.13;;;;;;;20.87;46.93;101578.91;5115162;28;20080;-83
2022/06/03 09:31:35;;;;;;;7.50;6.75;;;;;;;20.98;46.46;101585.34;5098020;28;20039;-84
2022/06/03 09:34:02;;;;;;;9.02;6.93;;;;;;;21.06;45.69;101582.03;5114310;28;20031;-84
2022/06/03 09:36:29;;;;;;;7.78;7.00;;;;;;;21.16;45.23;101570.25;5097634;28;20051;-83
2022/06/03 09:39:03;;;;;;;6.57;5.97;;;;;;;21.19;45.09;101567.75;5097551;28;20140;-83
2022/06/03 09:41:37;;;;;;;8.98;6.18;;;;;;;21.32;45.34;101557.34;5115669;28;20478;-84
2022/06/03 09:44:04;;;;;;;8.15;6.35;;;;;;;21.42;44.02;101565.66;5113503;28;20047;-84
2022/06/03 09:46:31;;;;;;;6.40;5.70;;;;;;;21.50;43.32;101558.78;5115297;28;20046;-83
2022/06/03 09:48:58;;;;;;;6.68;5.68;;;;;;;21.58;42.26;101560.19;5115653;28;20035;-84
2022/06/03 09:54:39;;;;;;;7.05;4.95;;;;;;;21.82;42.85;101568.78;5115828;28;20096;-84
2022/06/03 09:57:20;;;;;;;6.75;4.63;;;;;;;21.97;42.48;101557.78;5114360;28;20474;-84
2022/06/03 10:00:23;;;;;;;7.25;5.18;;;;;;;22.08;42.48;101553.06;5113300;28;20061;-83
2022/06/03 10:02:49;;;;;;;4.93;4.50;;;;;;;22.22;39.90;101545.06;5113825;28;20024;-84
2022/06/03 10:05:17;;;;;;;6.17;4.63;;;;;;;22.33;39.85;101552.25;5115130;28;20066;-84
2022/06/03 10:07:44;;;;;;;5.43;4.63;;;;;;;22.42;39.32;101542.28;5114999;28;20118;-84
2022/06/03 10:13:00;;;;;;;4.75;3.60;;;;;;;22.80;38.67;101536.41;5115513;28;20039;-85
2022/06/03 10:15:44;;;;;;;6.18;3.22;;;;;;;22.98;38.98;101551.56;5096922;28;20069;-84
2022/06/03 10:18:40;;;;;;;4.33;2.90;;;;;;;23.28;39.55;101544.28;5114038;28;20031;-84
2022/06/03 10:21:05;;;;;;;6.68;3.03;;;;;;;23.46;36.73;101531.72;5115267;28;20044;-84
2022/06/03 10:23:35;;;;;;;6.18;3.28;;;;;;;23.68;36.91;101530.47;5113751;28;20027;-84
2022/06/03 10:26:01;;;;;;;8.30;3.30;;;;;;;23.81;35.52;101533.44;5114315;28;20333;-84
2022/06/03 10:28:35;;;;;;;5.13;3.13;;;;;;;23.97;35.76;101527.78;5096675;28;20395;-84
2022/06/03 10:31:07;;;;;;;3.78;2.92;;;;;;;24.14;35.08;101521.84;5113083;28;20043;-83
2022/06/03 10:33:34;;;;;;;4.97;2.78;;;;;;;24.21;34.12;101513.16;5113670;28;20114;-84
2022/06/03 10:36:02;;;;;;;2.72;2.50;;;;;;;24.35;33.25;101519.69;5113765;28;20482;-83
2022/06/03 10:38:30;;;;;;;5.27;2.60;;;;;;;24.51;33.59;101514.81;5113613;28;20119;-85
2022/06/03 10:40:57;;;;;;;3.08;2.70;;;;;;;24.65;33.91;101515.78;5112955;28;20104;-84
2022/06/03 10:43:30;;;;;;;3.47;2.60;;;;;;;24.85;33.78;101514.72;5113044;28;20115;-84
2022/06/03 10:46:16;;;;;;;3.08;2.50;;;;;;;25.11;34.40;101519.13;5114554;28;20388;-85
2022/06/03 10:48:45;;;;;;;4.60;3.03;;;;;;;25.32;32.13;101516.91;5113135;28;20038;-84
2022/06/03 11:02:53;;;;;;;2.50;2.30;;;;;;;27.00;29.42;101505.13;5031353;28;20053;-84
2022/06/03 11:05:26;;;;;;;2.67;2.03;;;;;;;27.09;28.67;101500.47;5078918;28;20046;-84
2022/06/03 11:08:03;;;;;;;7.20;2.00;;;;;;;27.47;28.57;101501.06;5112973;28;20072;-84
2022/06/03 11:10:38;;;;;;;3.90;2.38;;;;;;;27.88;28.15;101501.19;5113966;28;20031;-84
2022/06/03 11:13:06;;;;;;;2.00;1.90;;;;;;;28.39;26.84;101497.09;5113716;28;20110;-84
2022/06/03 11:15:41;;;;;;;2.28;1.77;;;;;;;29.02;26.68;101494.19;5114389;28;20114;-84
2022/06/03 11:18:19;;;;;;;2.95;1.70;;;;;;;29.88;26.06;101498.22;5113151;28;20027;-84
2022/06/03 11:20:47;;;;;;;3.00;1.85;;;;;;;31.25;22.32;101489.88;5114613;28;20032;-84
2022/06/03 11:23:14;;;;;;;2.92;1.75;;;;;;;33.67;20.44;101483.94;5114046;28;20030;-84
2022/06/03 11:26:03;;;;;;;2.70;1.60;;;;;;;35.50;19.78;101486.84;5112638;28;20035;-84
2022/06/03 11:28:42;;;;;;;2.05;1.80;;;;;;;36.41;16.91;101484.50;5096348;28;20122;-84
2022/06/03 11:31:26;;;;;;;2.65;1.80;;;;;;;37.77;16.09;101482.81;5113150;28;20112;-84
2022/06/03 11:34:11;;;;;;;2.20;2.00;;;;;;;38.38;16.69;101479.75;5113254;28;20031;-84
2022/06/03 11:36:45;;;;;;;2.25;2.05;;;;;;;38.12;15.81;101477.88;5114462;28;20463;-85
2022/06/03 11:39:32;;;;;;;4.40;2.27;;;;;;;38.64;16.95;101477.91;5113694;28;20031;-84
2022/06/03 11:42:11;;;;;;;2.40;2.20;;;;;;;39.07;16.38;101472.53;5113836;28;20027;-85
2022/06/03 11:45:19;;;;;;;3.55;2.53;;;;;;;40.28;15.87;101471.25;5112364;28;20491;-85
2022/06/03 11:47:49;;;;;;;3.03;2.55;;;;;;;41.14;12.71;101467.44;5113482;28;20166;-84
2022/06/03 11:50:18;;;;;;;3.42;3.10;;;;;;;41.07;12.67;101458.16;5112897;28;20027;-84
2022/06/03 11:52:44;;;;;;;3.33;2.90;;;;;;;41.90;12.29;101469.91;5112493;28;20035;-85
2022/06/03 11:55:11;;;;;;;3.95;3.00;;;;;;;42.86;11.73;101469.47;5095346;28;20032;-85
2022/06/03 11:57:46;;;;;;;4.20;3.00;;;;;;;43.24;11.89;101466.59;5112781;28;20040;-85
2022/06/03 12:00:19;;;;;;;3.00;2.80;;;;;;;43.53;11.42;101469.88;5112901;28;20028;-85
2022/06/03 12:03:09;;;;;;;4.38;3.40;;;;;;;44.84;11.08;101466.47;5112828;28;20036;-86
2022/06/03 12:05:50;;;;;;;3.75;3.33;;;;;;;45.62;10.98;101468.09;5112680;28;20028;-86
2022/06/03 12:08:30;;;;;;;4.07;3.70;;;;;;;46.59;10.39;101465.69;5115990;28;20122;-85
2022/06/03 12:11:03;;;;;;;3.78;3.47;;;;;;;47.23;9.22;101463.03;5116551;28;20032;-85
2022/06/03 12:13:33;;;;;;;4.03;3.70;;;;;;;47.91;9.06;101447.75;5117190;28;20031;-83
2022/06/03 12:16:09;;;;;;;3.85;3.55;;;;;;;48.46;8.72;101444.66;5099114;28;20039;-83
2022/06/03 12:18:42;;;;;;;4.05;3.75;;;;;;;49.24;8.73;101445.84;5116202;28;20031;-84
2022/06/03 12:21:32;;;;;;;4.70;4.30;;;;;;;50.63;9.16;101439.56;5116416;28;20138;-84
2022/06/03 12:24:40;;;;;;;4.47;4.18;;;;;;;51.00;8.24;101437.44;5117057;28;20471;-87
2022/06/03 12:27:14;;;;;;;5.00;4.60;;;;;;;49.88;7.64;101432.09;5105359;28;20027;-82
2022/06/03 12:29:47;;;;;;;4.88;4.47;;;;;;;48.48;7.58;101421.97;5117071;28;20055;-83
2022/06/03 12:32:23;;;;;;;4.22;3.92;;;;;;;47.90;7.66;101421.06;5116225;28;20031;-82
2022/06/03 12:34:48;;;;;;;5.72;4.20;;;;;;;48.24;7.07;101412.94;5116743;28;20035;-82
2022/06/03 12:37:29;;;;;;;4.57;4.27;;;;;;;48.29;8.25;101406.59;5117461;28;20035;-82
2022/06/03 12:40:19;;;;;;;5.18;4.68;;;;;;;47.78;9.01;101407.53;5116207;28;20050;-83
2022/06/03 12:42:45;;;;;;;5.70;5.03;;;;;;;48.12;8.45;101417.47;5115678;28;20020;-82
2022/06/03 12:45:13;;;;;;;6.43;4.90;;;;;;;48.72;8.78;101407.88;5097998;28;20078;-82
2022/06/03 12:47:43;;;;;;;5.15;4.85;;;;;;;48.16;8.59;101406.63;5115529;28;20031;-82
2022/06/03 12:50:33;;;;;;;4.63;4.22;;;;;;;48.32;9.66;101411.41;5115024;28;20368;-83
2022/06/03 12:53:22;;;;;;;4.82;4.53;;;;;;;48.78;8.39;101399.44;5114835;28;20035;-83
2022/06/03 12:55:59;;;;;;;5.27;4.53;;;;;;;47.94;8.65;101407.38;5116328;28;20023;-82
2022/06/03 12:58:41;;;;;;;4.70;4.30;;;;;;;47.61;8.53;101401.88;5115633;28;20076;-83
2022/06/03 13:01:08;;;;;;;5.55;4.60;;;;;;;48.32;8.05;101393.34;5115059;28;20057;-82
2022/06/03 13:03:33;;;;;;;5.07;4.78;;;;;;;48.40;7.85;101386.03;5116101;28;20027;-82
2022/06/03 13:06:03;;;;;;;5.17;4.77;;;;;;;47.78;7.81;101391.09;5116377;28;20038;-82